Time;durP1;ratioP1;P1;durP2;ratioP2;P2;SDS_P1;SDS_P2;PMS_P1;PMS_P2;Temp;Humidity;BMP_temperature;BMP_pressure;BME280_temperature;BME280_humidity;BME280_pressure;Samples;Min_cycle;Max_cycle;Signal;HPM_P1;HPM_P2
2023/04/07 00:02:09;;;;;;;1.02;1.02;;;;;;;1.91;67.61;97570.13;5002505;28;20736;-73
2023/04/07 00:04:37;;;;;;;1.02;0.93;;;;;;;1.94;66.76;97573.31;5002545;28;20469;-72
2023/04/07 00:07:04;;;;;;;0.70;0.70;;;;;;;1.99;66.86;97567.63;5007414;28;20121;-72
2023/04/07 00:09:32;;;;;;;1.50;1.40;;;;;;;2.29;64.69;97567.41;5003850;28;20046;-72
2023/04/07 00:12:01;;;;;;;0.88;0.80;;;;;;;2.12;66.20;97565.53;5009299;28;20050;-73
2023/04/07 00:14:29;;;;;;;0.98;0.82;;;;;;;1.99;67.13;97565.81;5004178;28;20112;-72
2023/04/07 00:16:57;;;;;;;0.93;0.90;;;;;;;2.08;66.57;97558.88;5011296;28;20049;-72
2023/04/07 00:19:25;;;;;;;1.15;1.05;;;;;;;1.96;66.92;97562.66;5004232;28;20125;-72
2023/04/07 00:21:53;;;;;;;1.00;0.88;;;;;;;2.11;66.62;97561.22;5004473;28;20045;-72
2023/04/07 00:24:21;;;;;;;0.73;0.73;;;;;;;1.90;66.91;97548.25;5005149;28;20042;-72
2023/04/07 00:27:00;;;;;;;1.10;1.00;;;;;;;1.99;65.98;97551.84;5004934;28;20054;-72
2023/04/07 00:29:28;;;;;;;1.00;1.00;;;;;;;1.94;66.37;97556.72;5006982;28;20038;-72
2023/04/07 00:31:57;;;;;;;1.30;1.10;;;;;;;1.85;66.82;97555.75;5005760;28;20116;-72
2023/04/07 00:34:24;;;;;;;1.33;1.23;;;;;;;1.92;66.93;97554.22;5007966;28;20452;-72
2023/04/07 00:36:52;;;;;;;0.90;0.90;;;;;;;1.82;66.97;97548.97;5006148;28;20045;-73
2023/04/07 00:39:20;;;;;;;0.77;0.77;;;;;;;1.91;66.90;97542.03;5001624;28;20042;-73
2023/04/07 00:41:50;;;;;;;1.13;1.02;;;;;;;1.69;67.65;97543.16;5007295;28;20125;-73
2023/04/07 00:44:17;;;;;;;1.05;0.88;;;;;;;1.55;68.00;97543.63;4995159;28;20049;-73
2023/04/07 00:46:47;;;;;;;0.85;0.80;;;;;;;1.55;67.87;97546.25;4991496;28;20042;-73
2023/04/07 00:49:17;;;;;;;0.82;0.82;;;;;;;1.55;68.19;97533.09;4998806;28;20129;-72
2023/04/07 00:51:45;;;;;;;1.25;1.15;;;;;;;1.40;69.05;97542.38;5010340;28;20045;-72
2023/04/07 00:54:13;;;;;;;1.20;1.10;;;;;;;1.37;68.88;97540.00;5005423;28;20038;-72
2023/04/07 00:56:40;;;;;;;1.23;1.13;;;;;;;1.42;68.31;97543.06;4989745;28;20054;-72
2023/04/07 00:59:10;;;;;;;1.10;1.00;;;;;;;1.61;67.72;97535.16;5007352;28;20042;-73
2023/04/07 01:01:44;;;;;;;1.92;1.83;;;;;;;1.66;67.75;97532.13;5001177;28;20705;-70
2023/04/07 01:04:20;;;;;;;1.10;1.00;;;;;;;1.54;68.27;97534.06;4999269;28;20038;-73
2023/04/07 01:06:50;;;;;;;1.23;0.90;;;;;;;1.45;68.23;97529.66;4990930;28;20112;-73
2023/04/07 01:09:25;;;;;;;1.23;1.13;;;;;;;1.15;69.78;97524.50;5000539;28;20050;-73
2023/04/07 01:11:56;;;;;;;1.52;1.42;;;;;;;1.10;69.31;97523.13;5007382;28;20417;-73
2023/04/07 01:14:24;;;;;;;1.08;0.98;;;;;;;1.01;69.66;97518.72;5001513;28;20059;-73
2023/04/07 01:17:00;;;;;;;1.40;1.30;;;;;;;1.27;68.33;97518.16;5008775;28;20375;-73
2023/04/07 01:19:33;;;;;;;1.00;1.00;;;;;;;1.39;68.50;97517.03;5004092;28;20515;-72
2023/04/07 01:22:02;;;;;;;0.82;0.82;;;;;;;1.23;68.70;97507.09;4994288;28;20054;-72
2023/04/07 01:24:42;;;;;;;1.50;1.40;;;;;;;1.32;68.70;97515.94;4999103;28;20046;-73
2023/04/07 01:27:19;;;;;;;0.80;0.80;;;;;;;1.47;67.74;97509.28;5004269;28;20050;-73
2023/04/07 01:29:49;;;;;;;0.90;0.90;;;;;;;1.51;67.67;97512.47;5010708;28;20053;-72
2023/04/07 01:32:19;;;;;;;1.10;1.00;;;;;;;1.41;67.71;97515.09;4999809;28;20490;-72
2023/04/07 01:34:49;;;;;;;1.58;1.48;;;;;;;1.56;67.42;97515.53;4995162;28;20078;-73
2023/04/07 01:37:17;;;;;;;1.00;1.00;;;;;;;1.48;68.05;97511.78;5006694;28;20077;-71
2023/04/07 01:39:44;;;;;;;1.17;1.08;;;;;;;1.65;66.97;97507.63;4993735;28;20046;-71
2023/04/07 01:42:13;;;;;;;0.90;0.90;;;;;;;1.38;68.73;97510.13;5000869;28;20050;-71
2023/04/07 01:44:40;;;;;;;1.30;1.20;;;;;;;1.33;68.14;97507.09;4993166;28;20046;-70
2023/04/07 01:47:10;;;;;;;1.13;1.08;;;;;;;1.28;68.22;97502.25;5006176;28;20054;-73
2023/04/07 01:49:39;;;;;;;1.40;1.30;;;;;;;1.19;68.96;97500.44;5002417;28;20042;-71
2023/04/07 01:52:07;;;;;;;1.20;1.10;;;;;;;1.12;69.21;97499.34;5007057;28;20046;-71
2023/04/07 01:54:35;;;;;;;1.20;1.02;;;;;;;1.13;68.74;97500.19;4980076;28;20051;-71
2023/04/07 01:57:03;;;;;;;1.30;1.20;;;;;;;1.03;69.37;97506.28;5002175;28;20056;-71
2023/04/07 01:59:30;;;;;;;1.23;1.13;;;;;;;1.00;69.40;97508.34;4999111;28;20094;-71
2023/04/07 02:02:00;;;;;;;1.38;1.27;;;;;;;1.15;68.97;97506.09;4999210;28;20042;-71
2023/04/07 02:04:32;;;;;;;1.00;1.00;;;;;;;1.25;68.43;97499.06;5009102;28;20046;-71
2023/04/07 02:07:06;;;;;;;1.33;1.23;;;;;;;1.22;68.10;97499.34;5002336;28;20053;-71
2023/04/07 02:09:40;;;;;;;1.38;1.27;;;;;;;1.14;68.52;97496.59;5001713;28;20058;-71
2023/04/07 02:12:09;;;;;;;1.25;1.15;;;;;;;1.14;68.64;97500.06;5003628;28;20076;-71
2023/04/07 02:14:40;;;;;;;1.40;1.30;;;;;;;1.02;69.31;97499.34;5002834;28;20077;-71
2023/04/07 02:17:13;;;;;;;1.20;1.10;;;;;;;1.07;68.55;97491.03;4995931;28;20100;-71
2023/04/07 02:19:42;;;;;;;1.15;0.98;;;;;;;0.99;69.33;97493.53;5001242;28;20038;-71
2023/04/07 02:22:11;;;;;;;1.70;1.23;;;;;;;1.08;68.39;97488.28;5004319;28;20053;-71
2023/04/07 02:24:41;;;;;;;1.20;1.10;;;;;;;1.15;68.53;97482.47;4997237;28;20457;-73
2023/04/07 02:27:08;;;;;;;1.27;1.17;;;;;;;0.92;69.53;97485.38;5006201;28;20046;-71
2023/04/07 02:29:36;;;;;;;1.20;1.10;;;;;;;0.84;70.06;97484.38;5002554;28;20494;-71
2023/04/07 02:32:04;;;;;;;1.38;1.27;;;;;;;0.84;69.74;97485.22;5009935;28;20104;-71
2023/04/07 02:34:31;;;;;;;1.40;1.30;;;;;;;0.82;70.37;97481.09;4999291;28;20051;-71
2023/04/07 02:37:00;;;;;;;1.17;1.08;;;;;;;1.01;69.03;97484.56;4996156;28;20049;-71
2023/04/07 02:39:28;;;;;;;1.70;1.60;;;;;;;1.07;68.86;97478.72;5003281;28;20397;-71
2023/04/07 02:41:55;;;;;;;1.42;1.10;;;;;;;0.87;69.94;97484.94;4998611;28;20069;-71
2023/04/07 02:44:23;;;;;;;1.27;1.17;;;;;;;0.61;70.55;97483.81;5008614;28;20046;-71
2023/04/07 02:46:50;;;;;;;1.15;1.05;;;;;;;0.54;71.17;97485.31;5008428;28;20045;-71
2023/04/07 02:49:18;;;;;;;1.27;1.17;;;;;;;0.67;70.53;97488.53;5011561;28;20042;-71
2023/04/07 02:51:46;;;;;;;2.22;1.10;;;;;;;0.49;70.81;97490.16;4988567;28;20080;-71
2023/04/07 02:54:15;;;;;;;1.05;1.05;;;;;;;0.30;71.29;97486.50;4998613;28;20065;-71
2023/04/07 02:56:42;;;;;;;1.10;1.10;;;;;;;0.25;71.83;97487.88;5010476;28;20046;-71
2023/04/07 02:59:10;;;;;;;1.60;1.50;;;;;;;0.28;71.19;97482.34;5004097;28;20046;-71
2023/04/07 03:01:42;;;;;;;1.38;1.27;;;;;;;0.44;70.96;97476.59;5010948;28;20046;-71
2023/04/07 03:04:10;;;;;;;1.20;1.10;;;;;;;0.67;69.87;97478.00;5007452;28;20112;-71
2023/04/07 03:06:37;;;;;;;1.00;1.00;;;;;;;0.66;69.87;97478.97;5003928;28;20092;-71
2023/04/07 03:09:10;;;;;;;1.40;1.30;;;;;;;0.59;70.13;97472.63;5008327;28;20184;-73
2023/04/07 03:11:40;;;;;;;1.40;1.30;;;;;;;0.57;70.62;97474.53;5004270;28;20050;-71
2023/04/07 03:14:08;;;;;;;1.15;1.05;;;;;;;0.66;70.07;97469.31;5010460;28;20046;-71
2023/04/07 03:16:43;;;;;;;1.35;1.25;;;;;;;0.73;69.43;97470.41;5006118;28;20056;-73
2023/04/07 03:19:13;;;;;;;1.35;1.25;;;;;;;0.64;69.46;97465.16;5010758;28;20038;-73
2023/04/07 03:21:44;;;;;;;1.20;1.10;;;;;;;0.63;69.63;97466.94;4996191;28;20038;-73
2023/04/07 03:24:11;;;;;;;1.05;1.00;;;;;;;0.59;69.62;97470.81;5006038;28;20144;-73
2023/04/07 03:26:40;;;;;;;1.23;1.13;;;;;;;0.58;69.25;97470.97;5008625;28;20417;-73
2023/04/07 03:29:28;;;;;;;0.90;0.90;;;;;;;0.76;68.59;97468.47;5011125;28;20085;-73
2023/04/07 03:31:56;;;;;;;1.23;1.13;;;;;;;0.85;68.65;97467.66;5007821;28;20046;-73
2023/04/07 03:34:24;;;;;;;1.77;1.67;;;;;;;0.84;68.43;97471.25;5002318;28;20422;-73
2023/04/07 03:36:52;;;;;;;1.50;1.40;;;;;;;0.94;68.56;97469.47;5009658;28;20560;-72
2023/04/07 03:39:21;;;;;;;1.30;1.20;;;;;;;0.88;68.22;97465.59;5002169;28;20506;-73
2023/04/07 03:41:55;;;;;;;1.23;1.05;;;;;;;0.87;68.44;97470.97;5011266;28;20065;-73
2023/04/07 03:44:22;;;;;;;2.15;2.05;;;;;;;0.98;67.87;97466.44;5000400;28;20441;-73
2023/04/07 03:46:50;;;;;;;1.35;1.25;;;;;;;0.92;68.29;97456.50;5011666;28;20045;-71
2023/04/07 03:49:20;;;;;;;1.63;1.35;;;;;;;0.56;69.48;97459.75;5001623;28;20155;-71
2023/04/07 03:51:49;;;;;;;1.55;1.45;;;;;;;0.69;68.92;97460.34;5003993;28;20046;-70
2023/04/07 03:54:18;;;;;;;1.55;1.45;;;;;;;0.58;69.19;97455.22;5005700;28;20399;-71
2023/04/07 03:56:46;;;;;;;1.35;1.25;;;;;;;0.58;69.27;97463.91;5006085;28;20056;-73
2023/04/07 03:59:19;;;;;;;1.38;1.27;;;;;;;0.53;69.49;97452.13;5006739;28;20089;-74
2023/04/07 04:01:55;;;;;;;0.95;0.95;;;;;;;0.44;69.88;97466.91;4999313;28;20096;-70
2023/04/07 04:04:23;;;;;;;1.40;1.30;;;;;;;0.18;71.07;97473.63;5008840;28;20165;-71
2023/04/07 04:06:52;;;;;;;1.38;1.27;;;;;;;0.08;71.62;97465.72;5006554;28;20050;-71
2023/04/07 04:09:37;;;;;;;1.25;1.15;;;;;;;0.09;71.86;97471.81;5002331;28;20129;-73
2023/04/07 04:12:05;;;;;;;1.23;1.13;;;;;;;0.18;71.41;97465.75;5007229;28;20060;-73
2023/04/07 04:14:39;;;;;;;1.85;1.75;;;;;;;0.33;71.06;97469.66;5003318;28;20426;-71
2023/04/07 04:17:08;;;;;;;1.45;1.35;;;;;;;0.32;71.36;97457.47;5008102;28;20077;-71
2023/04/07 04:19:41;;;;;;;1.35;1.25;;;;;;;0.12;71.27;97469.72;4996480;28;20097;-73
2023/04/07 04:22:16;;;;;;;1.20;1.10;;;;;;;0.02;71.90;97471.47;5005071;28;20048;-71
2023/04/07 04:24:50;;;;;;;1.30;1.20;;;;;;;-0.14;72.29;97471.16;4997820;28;20497;-74
2023/04/07 04:27:18;;;;;;;1.33;1.23;;;;;;;-0.26;73.34;97474.81;5002444;28;20043;-71
2023/04/07 04:29:53;;;;;;;1.02;1.02;;;;;;;-0.16;73.14;97476.50;5011929;28;20034;-71
2023/04/07 04:32:31;;;;;;;1.38;1.27;;;;;;;-0.06;72.03;97471.31;5003418;28;20042;-70
2023/04/07 04:34:59;;;;;;;1.63;1.55;;;;;;;-0.10;72.23;97472.53;5005408;28;20413;-71
2023/04/07 04:37:27;;;;;;;0.90;0.90;;;;;;;-0.17;72.72;97471.41;4999021;28;20510;-71
2023/04/07 04:39:55;;;;;;;1.23;1.13;;;;;;;-0.20;72.57;97464.63;4997795;28;20503;-71
2023/04/07 04:42:25;;;;;;;1.10;1.10;;;;;;;-0.18;72.93;97464.50;4986755;28;20066;-71
2023/04/07 04:44:58;;;;;;;1.20;1.10;;;;;;;-0.19;72.93;97473.31;4999698;28;20216;-71
2023/04/07 04:47:27;;;;;;;1.20;1.10;;;;;;;-0.11;72.62;97468.28;5007795;28;20505;-71
2023/04/07 04:49:54;;;;;;;1.58;1.48;;;;;;;-0.11;72.51;97466.47;5005790;28;20141;-71
2023/04/07 04:52:22;;;;;;;1.10;1.00;;;;;;;-0.15;73.17;97467.69;5001288;28;20053;-71
2023/04/07 04:54:50;;;;;;;1.30;1.20;;;;;;;0.00;72.06;97471.59;5006385;28;20046;-71
2023/04/07 04:57:19;;;;;;;1.30;1.20;;;;;;;-0.03;72.19;97473.69;5002762;28;20049;-71
2023/04/07 04:59:47;;;;;;;1.30;1.20;;;;;;;-0.03;72.39;97473.69;5004375;28;20037;-71
2023/04/07 05:02:16;;;;;;;1.40;1.30;;;;;;;0.01;72.31;97469.81;5004542;28;20042;-71
2023/04/07 05:04:44;;;;;;;1.48;1.38;;;;;;;0.10;71.99;97466.44;5007160;28;20137;-71
2023/04/07 05:07:25;;;;;;;1.60;1.50;;;;;;;-0.07;72.55;97469.66;5005094;28;20045;-71
2023/04/07 05:09:52;;;;;;;1.95;1.45;;;;;;;-0.16;72.77;97468.66;4995092;28;20041;-71
2023/04/07 05:12:21;;;;;;;1.40;1.30;;;;;;;-0.12;73.20;97467.44;5001934;28;20046;-71
2023/04/07 05:14:55;;;;;;;1.63;1.52;;;;;;;-0.13;73.02;97465.78;4995898;28;20081;-71
2023/04/07 05:17:24;;;;;;;1.55;1.45;;;;;;;0.06;72.33;97462.41;5003442;28;20042;-71
2023/04/07 05:19:53;;;;;;;1.50;1.40;;;;;;;-0.11;72.92;97460.41;4998668;28;20041;-71
2023/04/07 05:22:31;;;;;;;;;;;;;;;-0.23;73.66;97458.81;5007967;28;20045;-71
2023/04/07 05:24:59;;;;;;;1.38;1.27;;;;;;;-0.15;73.07;97469.47;5003947;28;19921;-73
2023/04/07 05:27:27;;;;;;;2.00;1.90;;;;;;;-0.13;73.29;97460.53;4999721;28;20425;-71
2023/04/07 05:29:59;;;;;;;;;;;;;;;-0.02;72.65;97457.81;5010671;28;20053;-71
2023/04/07 05:32:32;;;;;;;1.42;1.33;;;;;;;-0.12;73.51;97463.97;5001701;28;19928;-74
2023/04/07 05:35:07;;;;;;;1.50;1.40;;;;;;;-0.07;73.24;97467.84;5002683;28;20050;-71
2023/04/07 05:37:38;;;;;;;1.48;1.38;;;;;;;-0.06;73.24;97466.06;5005421;28;20237;-72
2023/04/07 05:40:07;;;;;;;1.30;1.20;;;;;;;0.02;73.23;97466.22;5003789;28;20145;-72
2023/04/07 05:42:35;;;;;;;1.40;1.30;;;;;;;0.07;72.90;97457.97;5005689;28;20567;-71
2023/04/07 05:45:03;;;;;;;1.65;1.55;;;;;;;0.23;71.65;97460.91;4999313;28;20081;-72
2023/04/07 05:47:33;;;;;;;1.60;1.50;;;;;;;0.37;71.80;97460.56;5006715;28;20053;-72
2023/04/07 05:50:01;;;;;;;1.60;1.50;;;;;;;0.30;71.52;97462.06;5000663;28;20053;-72
2023/04/07 05:52:30;;;;;;;1.33;1.23;;;;;;;0.29;72.05;97461.22;5000601;28;20038;-72
2023/04/07 05:55:08;;;;;;;1.67;1.58;;;;;;;0.38;71.31;97456.13;5001752;28;20069;-72
2023/04/07 05:57:37;;;;;;;1.33;1.20;;;;;;;0.39;71.24;97463.03;4996703;28;20046;-72
2023/04/07 06:00:07;;;;;;;1.48;1.38;;;;;;;0.45;70.81;97457.25;5010245;28;20476;-71
2023/04/07 06:02:41;;;;;;;1.00;0.90;;;;;;;0.54;70.75;97461.69;5006548;28;20050;-72
2023/04/07 06:05:15;;;;;;;1.10;1.10;;;;;;;0.59;70.72;97464.75;5004861;28;20133;-71
2023/04/07 06:07:44;;;;;;;1.40;1.30;;;;;;;0.60;70.59;97461.16;4999532;28;20063;-71
2023/04/07 06:10:13;;;;;;;1.30;1.15;;;;;;;0.65;70.85;97459.75;5005791;28;20129;-72
2023/04/07 06:12:41;;;;;;;1.40;1.30;;;;;;;0.76;69.89;97463.22;5004348;28;20650;-72
2023/04/07 06:15:09;;;;;;;1.42;1.33;;;;;;;0.89;69.43;97461.19;5005100;28;20108;-72
2023/04/07 06:17:38;;;;;;;1.33;1.10;;;;;;;0.99;69.44;97457.59;5010599;28;20537;-72
2023/04/07 06:20:08;;;;;;;1.30;1.20;;;;;;;1.04;69.69;97452.72;5009412;28;20573;-72
2023/04/07 06:22:35;;;;;;;1.55;1.45;;;;;;;1.23;69.29;97456.34;5012110;28;20121;-72
2023/04/07 06:25:03;;;;;;;2.42;2.17;;;;;;;1.31;68.84;97457.28;5008570;28;20421;-72
2023/04/07 06:27:31;;;;;;;1.52;1.42;;;;;;;1.21;68.81;97459.09;5005813;28;20077;-72
2023/04/07 06:29:59;;;;;;;1.52;1.42;;;;;;;1.23;68.87;97456.34;5013261;28;20050;-72
2023/04/07 06:32:27;;;;;;;1.48;1.38;;;;;;;1.25;68.83;97447.31;5009601;28;20105;-72
2023/04/07 06:34:56;;;;;;;1.60;1.50;;;;;;;1.28;68.65;97459.34;4998696;28;20046;-72
2023/04/07 06:37:25;;;;;;;1.40;1.30;;;;;;;1.25;68.65;97447.31;5006967;28;20046;-72
2023/04/07 06:39:54;;;;;;;1.63;1.52;;;;;;;1.28;69.02;97457.56;5007986;28;20509;-72
2023/04/07 06:42:21;;;;;;;1.30;1.20;;;;;;;1.35;68.82;97456.03;5009834;28;20042;-72
2023/04/07 06:44:58;;;;;;;1.30;1.20;;;;;;;1.41;68.31;97458.09;5007347;28;20050;-72
2023/04/07 06:47:25;;;;;;;1.48;1.38;;;;;;;1.43;67.97;97450.06;5011368;28;20104;-72
2023/04/07 06:49:53;;;;;;;1.65;1.52;;;;;;;1.39;67.96;97449.53;5009533;28;20045;-72
2023/04/07 06:52:20;;;;;;;1.23;1.13;;;;;;;1.46;67.88;97450.59;5005173;28;20046;-72
2023/04/07 06:54:49;;;;;;;1.52;1.42;;;;;;;1.55;68.09;97459.47;5010213;28;20042;-71
2023/04/07 06:57:17;;;;;;;2.42;1.27;;;;;;;1.64;67.66;97455.16;5006787;28;20092;-71
2023/04/07 06:59:45;;;;;;;1.60;1.50;;;;;;;1.78;67.14;97457.31;4995249;28;20037;-71
2023/04/07 07:02:12;;;;;;;1.50;1.40;;;;;;;1.84;67.59;97451.50;5008378;28;20096;-71
2023/04/07 07:04:40;;;;;;;1.75;1.65;;;;;;;1.89;67.03;97453.66;5011104;28;20037;-71
2023/04/07 07:07:07;;;;;;;1.52;1.42;;;;;;;1.98;66.67;97461.53;5009241;28;20065;-71
2023/04/07 07:09:35;;;;;;;1.50;1.40;;;;;;;2.11;66.60;97466.47;5004530;28;20532;-71
2023/04/07 07:12:05;;;;;;;1.67;1.58;;;;;;;2.24;66.13;97452.97;5004150;28;20047;-71
2023/04/07 07:14:32;;;;;;;1.45;1.35;;;;;;;2.28;65.74;97454.34;5003262;28;20128;-71
2023/04/07 07:17:00;;;;;;;1.50;1.40;;;;;;;2.38;65.15;97453.34;5004544;28;20070;-74
2023/04/07 07:19:27;;;;;;;1.70;1.23;;;;;;;2.45;64.74;97458.81;5008409;28;20054;-73
2023/04/07 07:21:55;;;;;;;1.58;1.48;;;;;;;2.47;64.54;97462.97;5011209;28;20426;-72
2023/04/07 07:24:22;;;;;;;1.40;1.30;;;;;;;2.51;65.04;97463.50;5008744;28;20042;-72
2023/04/07 07:26:50;;;;;;;1.50;1.40;;;;;;;2.62;64.45;97463.28;5002942;28;20049;-71
2023/04/07 07:29:20;;;;;;;1.52;1.42;;;;;;;2.69;64.30;97455.63;5010509;28;20045;-71
2023/04/07 07:31:47;;;;;;;1.40;1.30;;;;;;;2.77;64.17;97456.53;5000011;28;20038;-71
2023/04/07 07:34:15;;;;;;;1.45;1.35;;;;;;;2.79;64.08;97461.66;5002829;28;20057;-72
2023/04/07 07:36:42;;;;;;;1.55;1.45;;;;;;;2.91;64.07;97465.72;5011217;28;20050;-72
2023/04/07 07:39:10;;;;;;;2.60;1.55;;;;;;;3.05;64.38;97462.56;5003733;28;20070;-72
2023/04/07 07:41:37;;;;;;;1.55;1.45;;;;;;;3.26;64.50;97464.91;5011260;28;20084;-72
2023/04/07 07:44:05;;;;;;;2.55;2.30;;;;;;;3.45;65.55;97466.53;5006184;28;20038;-72
2023/04/07 07:46:34;;;;;;;1.80;1.70;;;;;;;3.57;65.26;97468.78;5011683;28;20070;-72
2023/04/07 07:49:01;;;;;;;2.42;2.15;;;;;;;3.70;65.42;97473.66;5008300;28;20497;-72
2023/04/07 07:51:29;;;;;;;2.17;2.08;;;;;;;3.83;64.78;97473.25;5004704;28;20105;-71
2023/04/07 07:53:57;;;;;;;2.00;1.90;;;;;;;3.93;64.08;97469.50;5011826;28;20100;-72
2023/04/07 07:56:24;;;;;;;2.60;1.80;;;;;;;4.04;63.73;97479.81;5007144;28;20062;-72
2023/04/07 07:58:52;;;;;;;2.40;2.20;;;;;;;4.16;63.40;97476.88;5013774;28;20069;-74
2023/04/07 08:01:20;;;;;;;2.15;2.05;;;;;;;4.26;63.57;97481.06;5006092;28;20387;-74
2023/04/07 08:03:49;;;;;;;2.20;2.00;;;;;;;4.41;63.47;97476.00;5014171;28;20038;-74
2023/04/07 08:06:17;;;;;;;2.00;1.90;;;;;;;4.49;62.83;97470.75;5007471;28;20046;-74
2023/04/07 08:08:45;;;;;;;2.20;2.10;;;;;;;4.56;62.63;97470.97;4992498;28;20050;-74
2023/04/07 08:11:12;;;;;;;2.55;2.35;;;;;;;4.63;62.23;97474.59;5012374;28;20262;-74
2023/04/07 08:13:44;;;;;;;1.90;1.80;;;;;;;4.68;61.14;97467.84;5014048;28;20123;-74
2023/04/07 08:16:12;;;;;;;2.22;2.10;;;;;;;4.78;61.20;97472.97;5017308;28;20055;-74
2023/04/07 08:18:40;;;;;;;1.65;1.55;;;;;;;4.87;59.62;97474.69;5007407;28;20050;-74
2023/04/07 08:21:09;;;;;;;1.98;1.88;;;;;;;4.93;59.21;97476.66;5004590;28;20551;-74
2023/04/07 08:23:36;;;;;;;1.80;1.70;;;;;;;5.04;59.53;97479.00;5007888;28;20046;-72
2023/04/07 08:26:04;;;;;;;1.85;1.75;;;;;;;5.12;57.66;97473.72;5010136;28;20100;-75
2023/04/07 08:28:32;;;;;;;1.52;1.42;;;;;;;5.20;57.16;97472.91;5007427;28;20049;-72
2023/04/07 08:30:59;;;;;;;1.88;1.77;;;;;;;5.27;56.54;97476.56;5010824;28;20092;-72
2023/04/07 08:33:26;;;;;;;1.55;1.45;;;;;;;5.26;55.69;97474.91;5007474;28;20045;-72
2023/04/07 08:35:54;;;;;;;1.65;1.40;;;;;;;5.47;56.00;97477.06;5004643;28;20501;-72
2023/04/07 08:38:23;;;;;;;2.22;2.03;;;;;;;5.66;56.56;97478.53;5009237;28;20054;-73
2023/04/07 08:40:54;;;;;;;1.92;1.73;;;;;;;5.75;55.09;97474.88;5005566;28;20049;-72
2023/04/07 08:43:22;;;;;;;1.73;1.63;;;;;;;5.88;54.30;97475.25;5009874;28;20108;-72
2023/04/07 08:45:50;;;;;;;1.75;1.63;;;;;;;5.92;53.10;97479.19;5007130;28;20050;-71
2023/04/07 08:48:25;;;;;;;1.73;1.63;;;;;;;6.04;53.71;97479.66;5016214;28;20050;-72
2023/04/07 08:50:54;;;;;;;2.00;1.50;;;;;;;6.12;52.62;97477.84;5010115;28;20064;-71
2023/04/07 08:53:24;;;;;;;2.20;2.08;;;;;;;6.15;52.15;97479.31;5010873;28;20444;-71
2023/04/07 08:55:52;;;;;;;1.75;1.65;;;;;;;6.29;51.80;97475.13;5006579;28;20088;-74
2023/04/07 08:58:19;;;;;;;1.33;1.23;;;;;;;6.46;52.91;97480.19;5009743;28;20057;-73
2023/04/07 09:00:48;;;;;;;1.90;1.80;;;;;;;6.72;49.97;97479.09;5008164;28;20041;-72
2023/04/07 09:03:16;;;;;;;1.63;1.52;;;;;;;6.94;47.49;97470.38;5008985;28;20065;-71
2023/04/07 09:05:44;;;;;;;1.65;1.55;;;;;;;7.18;47.84;97466.72;4997965;28;20045;-71
2023/04/07 09:08:12;;;;;;;1.77;1.67;;;;;;;7.37;49.37;97467.06;5000450;28;20042;-72
2023/04/07 09:10:40;;;;;;;1.70;1.60;;;;;;;7.66;50.29;97468.19;5010239;28;20054;-71
2023/04/07 09:13:08;;;;;;;1.83;1.73;;;;;;;7.81;46.80;97466.38;5004056;28;20053;-72
2023/04/07 09:15:36;;;;;;;1.90;1.80;;;;;;;8.01;48.41;97469.34;5010664;28;20081;-73
2023/04/07 09:18:05;;;;;;;2.08;1.98;;;;;;;7.94;46.37;97461.28;5007054;28;20047;-72
2023/04/07 09:20:54;;;;;;;2.15;2.00;;;;;;;7.90;46.29;97451.16;5003820;28;20046;-72
2023/04/07 09:23:28;;;;;;;2.22;2.05;;;;;;;7.96;47.04;97445.97;5005227;28;20060;-72
2023/04/07 09:25:58;;;;;;;2.25;2.15;;;;;;;8.15;46.24;97451.75;5009091;28;20081;-72
2023/04/07 09:28:38;;;;;;;2.13;2.00;;;;;;;8.40;47.63;97446.03;5007089;28;20073;-72
2023/04/07 09:31:06;;;;;;;1.92;1.83;;;;;;;8.67;46.29;97446.34;5010486;28;20056;-73
2023/04/07 09:33:34;;;;;;;1.88;1.77;;;;;;;8.83;46.42;97446.94;5006715;28;20038;-72
2023/04/07 09:36:02;;;;;;;1.90;1.80;;;;;;;9.01;46.29;97446.56;5005694;28;20045;-73
2023/04/07 09:38:34;;;;;;;2.35;2.20;;;;;;;9.00;43.14;97446.72;5009753;28;20046;-73
2023/04/07 09:41:11;;;;;;;2.83;2.28;;;;;;;9.07;44.43;97444.97;5000732;28;20049;-73
2023/04/07 09:43:40;;;;;;;1.95;1.77;;;;;;;9.14;42.43;97449.31;5010218;28;20345;-73
2023/04/07 09:46:13;;;;;;;1.85;1.75;;;;;;;9.16;43.15;97441.16;5008796;28;20042;-72
2023/04/07 09:48:40;;;;;;;;;;;;;;;9.29;42.09;97446.63;5011399;28;20038;-72
2023/04/07 09:51:10;;;;;;;2.30;1.98;;;;;;;9.29;41.17;97440.47;5000556;28;19949;-71
2023/04/07 09:53:46;;;;;;;2.00;1.80;;;;;;;9.39;42.03;97439.13;5014648;28;20103;-72
2023/04/07 09:56:17;;;;;;;1.90;1.80;;;;;;;9.58;40.95;97440.31;5003015;28;20058;-73
2023/04/07 09:58:46;;;;;;;2.05;1.95;;;;;;;9.79;40.95;97448.28;5001419;28;20046;-73
2023/04/07 10:01:16;;;;;;;1.92;1.83;;;;;;;9.76;38.89;97437.22;5009043;28;20031;-72
2023/04/07 10:03:45;;;;;;;2.35;2.20;;;;;;;9.81;40.70;97432.94;5016185;28;20067;-72
2023/04/07 10:06:13;;;;;;;3.28;3.08;;;;;;;9.94;40.51;97430.38;5009888;28;20458;-73
2023/04/07 10:08:42;;;;;;;2.08;1.88;;;;;;;10.11;39.07;97435.38;5008709;28;20053;-72
2023/04/07 10:11:10;;;;;;;2.00;1.80;;;;;;;10.11;37.45;97424.72;5011513;28;20057;-72
2023/04/07 10:13:40;;;;;;;1.70;1.60;;;;;;;10.20;38.00;97424.41;5009132;28;20105;-72
2023/04/07 10:16:08;;;;;;;1.60;1.50;;;;;;;10.21;36.66;97430.56;5013291;28;20065;-73
2023/04/07 10:18:36;;;;;;;1.92;1.83;;;;;;;10.28;37.77;97426.91;5010267;28;20409;-72
2023/04/07 10:21:08;;;;;;;1.65;1.55;;;;;;;10.37;36.83;97419.59;5015260;28;20049;-72
2023/04/07 10:23:49;;;;;;;1.45;1.33;;;;;;;10.42;37.09;97417.13;5010353;28;20038;-73
2023/04/07 10:26:18;;;;;;;1.70;1.60;;;;;;;10.63;36.45;97418.88;5012382;28;20045;-73
2023/04/07 10:28:51;;;;;;;1.35;1.25;;;;;;;10.77;36.85;97419.75;5005619;28;20065;-73
2023/04/07 10:31:20;;;;;;;1.40;1.30;;;;;;;10.96;35.68;97427.00;5013913;28;20096;-73
2023/04/07 10:33:49;;;;;;;1.40;1.30;;;;;;;11.15;36.24;97412.03;5002901;28;20034;-73
2023/04/07 10:36:19;;;;;;;1.27;1.17;;;;;;;11.32;34.65;97418.63;5010997;28;20075;-73
2023/04/07 10:39:21;;;;;;;1.40;1.30;;;;;;;11.48;34.64;97418.25;5008612;28;20301;-73
2023/04/07 10:41:50;;;;;;;1.70;1.60;;;;;;;11.62;34.26;97422.59;5001331;28;20038;-73
2023/04/07 10:44:51;;;;;;;1.70;1.60;;;;;;;11.65;34.73;97422.16;5007011;28;20056;-73
2023/04/07 10:47:19;;;;;;;1.25;1.15;;;;;;;11.87;35.47;97421.97;5005239;28;20497;-73
2023/04/07 10:50:18;;;;;;;1.58;1.48;;;;;;;12.03;34.44;97424.25;4994698;28;20044;-73
2023/04/07 10:52:47;;;;;;;1.35;1.25;;;;;;;12.07;33.63;97425.44;5005031;28;20046;-73
2023/04/07 10:55:29;;;;;;;1.48;1.38;;;;;;;12.31;34.36;97418.63;5010492;28;20042;-73
2023/04/07 10:58:16;;;;;;;1.55;1.45;;;;;;;12.59;33.30;97421.00;5001824;28;20045;-73
2023/04/07 11:01:17;;;;;;;1.60;1.50;;;;;;;12.73;33.32;97420.75;5010631;28;20115;-74
2023/04/07 11:03:53;;;;;;;1.55;1.45;;;;;;;12.82;33.12;97422.16;5015124;28;20489;-72
2023/04/07 11:06:21;;;;;;;1.48;1.38;;;;;;;12.72;30.69;97415.59;5007200;28;20464;-73
2023/04/07 11:08:49;;;;;;;1.52;1.42;;;;;;;12.66;30.03;97419.13;5007403;28;20084;-72
2023/04/07 11:11:21;;;;;;;2.13;1.70;;;;;;;12.97;32.83;97415.69;5009733;28;20043;-73
2023/04/07 11:13:50;;;;;;;1.55;1.45;;;;;;;13.14;32.64;97414.19;4993356;28;20042;-73
2023/04/07 11:16:20;;;;;;;1.73;1.50;;;;;;;13.26;33.32;97417.81;5010927;28;20074;-72
2023/04/07 11:18:48;;;;;;;1.58;1.48;;;;;;;13.04;32.08;97409.25;5009424;28;20050;-72
2023/04/07 11:21:18;;;;;;;1.70;1.60;;;;;;;13.17;31.18;97408.41;5012741;28;20437;-73
2023/04/07 11:23:47;;;;;;;1.85;1.75;;;;;;;12.77;32.01;97405.09;4993840;28;20041;-73
2023/04/07 11:26:15;;;;;;;1.80;1.70;;;;;;;12.88;33.23;97402.53;5011174;28;20049;-73
2023/04/07 11:28:45;;;;;;;1.80;1.70;;;;;;;13.46;33.55;97401.59;5008790;28;20046;-72
2023/04/07 11:31:23;;;;;;;1.95;1.85;;;;;;;13.77;33.51;97403.41;5016379;28;20045;-72
2023/04/07 11:33:55;;;;;;;2.72;2.53;;;;;;;13.82;32.25;97409.75;5006979;28;20461;-73
2023/04/07 11:36:31;;;;;;;1.63;1.52;;;;;;;14.01;31.94;97405.28;5010347;28;20108;-73
2023/04/07 11:38:59;;;;;;;1.90;1.80;;;;;;;13.92;31.84;97398.53;5006293;28;20043;-72
2023/04/07 11:41:29;;;;;;;1.38;1.27;;;;;;;14.02;31.48;97398.03;5011182;28;20053;-73
2023/04/07 11:44:07;;;;;;;8.10;7.50;;;;;;;14.16;30.65;97403.03;5008439;28;20061;-73
2023/04/07 11:46:37;;;;;;;2.83;2.63;;;;;;;14.30;31.59;97409.13;5011603;28;20050;-73
2023/04/07 11:49:11;;;;;;;2.22;2.03;;;;;;;14.03;32.02;97395.13;5010026;28;20046;-73
2023/04/07 11:51:39;;;;;;;1.80;1.70;;;;;;;14.27;31.65;97402.31;5008822;28;20058;-73
2023/04/07 11:54:09;;;;;;;3.38;2.72;;;;;;;14.37;31.88;97399.13;5013188;28;20093;-73
2023/04/07 11:56:45;;;;;;;2.22;2.13;;;;;;;14.65;31.33;97402.13;5014874;28;20112;-73